Time;durP1;ratioP1;P1;durP2;ratioP2;P2;SDS_P1;SDS_P2;PMS_P1;PMS_P2;Temp;Humidity;BMP_temperature;BMP_pressure;BME280_temperature;BME280_humidity;BME280_pressure;Samples;Min_cycle;Max_cycle;Signal;HPM_P1;HPM_P2
2023/02/08 00:00:37;;;;;;;49.15;21.42;;;;;;;;;;6291479;22;20014;-95
2023/02/08 00:03:06;;;;;;;45.83;19.27;;;;;;;;;;6318569;22;20079;-95
2023/02/08 00:05:52;;;;;;;44.50;18.63;;;;;;;;;;6316692;22;20026;-92
2023/02/08 00:08:18;;;;;;;40.50;17.75;;;;;;;;;;6317001;22;20014;-92
2023/02/08 00:10:48;;;;;;;41.83;17.55;;;;;;;;;;6319150;22;20002;-96
2023/02/08 00:13:24;;;;;;;42.42;19.17;;;;;;;;;;6320832;22;19999;-94
2023/02/08 00:15:53;;;;;;;38.10;16.95;;;;;;;;;;6343466;22;20003;-92
2023/02/08 00:18:19;;;;;;;43.40;18.38;;;;;;;;;;6316151;22;20002;-92
2023/02/08 00:20:45;;;;;;;42.30;18.83;;;;;;;;;;6317679;22;20018;-93
2023/02/08 00:23:12;;;;;;;44.97;19.42;;;;;;;;;;6316000;22;20003;-92
2023/02/08 00:25:50;;;;;;;48.88;20.75;;;;;;;;;;6318809;22;20014;-95
2023/02/08 00:28:17;;;;;;;52.10;21.38;;;;;;;;;;6343405;22;20519;-92
2023/02/08 00:30:46;;;;;;;50.53;20.77;;;;;;;;;;6320523;22;20009;-96
2023/02/08 00:33:18;;;;;;;49.97;21.85;;;;;;;;;;6318676;22;20003;-95
2023/02/08 00:35:48;;;;;;;48.78;20.98;;;;;;;;;;6320667;22;20397;-96
2023/02/08 00:38:17;;;;;;;48.95;20.85;;;;;;;;;;6293863;22;20003;-94
2023/02/08 00:40:50;;;;;;;57.67;21.63;;;;;;;;;;6317246;22;20083;-92
2023/02/08 00:43:17;;;;;;;45.63;18.75;;;;;;;;;;6350029;22;20025;-94
2023/02/08 00:45:46;;;;;;;46.47;18.65;;;;;;;;;;6321312;22;20063;-93
2023/02/08 00:48:13;;;;;;;48.25;19.83;;;;;;;;;;6347900;22;20006;-91
2023/02/08 00:50:39;;;;;;;49.55;19.50;;;;;;;;;;6318300;22;20006;-93
2023/02/08 00:53:15;;;;;;;52.03;20.70;;;;;;;;;;6322968;22;20003;-95
2023/02/08 00:55:55;;;;;;;46.33;18.27;;;;;;;;;;6347812;22;19998;-96
2023/02/08 00:58:21;;;;;;;49.72;22.40;;;;;;;;;;6320224;22;20033;-93
2023/02/08 01:01:13;;;;;;;45.08;19.70;;;;;;;;;;6322189;22;20328;-94
2023/02/08 01:04:10;;;;;;;45.03;19.00;;;;;;;;;;6350297;22;20006;-96
2023/02/08 01:06:38;;;;;;;46.97;19.00;;;;;;;;;;6316625;22;19999;-94
2023/02/08 01:09:04;;;;;;;48.15;19.70;;;;;;;;;;6318236;22;20081;-94
2023/02/08 01:11:30;;;;;;;48.83;20.88;;;;;;;;;;6316821;22;19999;-93
2023/02/08 01:13:57;;;;;;;46.38;20.98;;;;;;;;;;6321439;22;20007;-92
2023/02/08 01:16:25;;;;;;;51.13;20.48;;;;;;;;;;6318223;22;20011;-93
2023/02/08 01:19:00;;;;;;;50.30;19.83;;;;;;;;;;6347815;22;20324;-96
2023/02/08 01:21:37;;;;;;;45.22;19.23;;;;;;;;;;6314021;22;20023;-94
2023/02/08 01:24:03;;;;;;;53.55;20.42;;;;;;;;;;6329179;22;19987;-95
2023/02/08 01:26:32;;;;;;;114.45;37.10;;;;;;;;;;6331172;22;19991;-92
2023/02/08 01:29:07;;;;;;;101.47;32.67;;;;;;;;;;6327831;22;20022;-93
2023/02/08 01:31:41;;;;;;;57.78;22.70;;;;;;;;;;6315354;22;20019;-95
2023/02/08 01:34:25;;;;;;;57.17;21.23;;;;;;;;;;6328558;22;19996;-91
2023/02/08 01:36:54;;;;;;;48.70;19.80;;;;;;;;;;6328739;22;19998;-93
2023/02/08 01:39:20;;;;;;;41.55;18.52;;;;;;;;;;6314554;22;20092;-92
2023/02/08 01:41:46;;;;;;;44.97;18.27;;;;;;;;;;6315965;22;20122;-92
2023/02/08 01:44:18;;;;;;;52.15;20.60;;;;;;;;;;6315065;22;20304;-95
2023/02/08 01:46:52;;;;;;;49.13;20.20;;;;;;;;;;6313234;22;20440;-94
2023/02/08 01:49:29;;;;;;;47.90;19.58;;;;;;;;;;6314830;22;20007;-94
2023/02/08 01:52:10;;;;;;;47.13;20.08;;;;;;;;;;6313001;22;20003;-92
2023/02/08 01:54:39;;;;;;;46.70;19.17;;;;;;;;;;6315831;22;20094;-91
2023/02/08 01:57:13;;;;;;;48.78;19.98;;;;;;;;;;6313102;22;20007;-94
2023/02/08 01:59:50;;;;;;;43.40;18.10;;;;;;;;;;6316284;22;20064;-93
2023/02/08 02:02:19;;;;;;;48.05;19.13;;;;;;;;;;6314771;22;20037;-94
2023/02/08 02:04:50;;;;;;;43.08;18.42;;;;;;;;;;6313962;22;20052;-96
2023/02/08 02:07:20;;;;;;;48.55;19.92;;;;;;;;;;6316514;22;20010;-96
2023/02/08 02:09:52;;;;;;;45.90;20.70;;;;;;;;;;6289504;22;20328;-95
2023/02/08 02:12:19;;;;;;;46.78;20.02;;;;;;;;;;6318598;22;20010;-92
2023/02/08 02:14:48;;;;;;;54.20;21.10;;;;;;;;;;6316872;22;20014;-93
2023/02/08 02:17:18;;;;;;;42.85;19.52;;;;;;;;;;6316538;22;20558;-92
2023/02/08 02:20:03;;;;;;;45.88;19.25;;;;;;;;;;6314476;22;20471;-93
2023/02/08 02:22:31;;;;;;;48.33;19.52;;;;;;;;;;6314011;22;20003;-93
2023/02/08 02:25:24;;;;;;;52.97;20.08;;;;;;;;;;6319290;22;20455;-93
2023/02/08 02:28:10;;;;;;;56.92;19.77;;;;;;;;;;6316192;22;20003;-96
2023/02/08 02:30:46;;;;;;;49.60;19.95;;;;;;;;;;6315098;22;20007;-96
2023/02/08 02:33:28;;;;;;;45.83;19.63;;;;;;;;;;6315266;22;20003;-96
2023/02/08 02:36:08;;;;;;;51.35;19.52;;;;;;;;;;6315434;22;20003;-94
2023/02/08 02:38:42;;;;;;;41.70;17.67;;;;;;;;;;6315514;22;20003;-94
2023/02/08 02:43:40;;;;;;;49.45;19.30;;;;;;;;;;6313884;22;20011;-94
2023/02/08 02:44:09;;;;;;;47.97;19.25;;;;;;;;;;6318417;22;20010;-92
2023/02/08 02:46:41;;;;;;;51.78;20.45;;;;;;;;;;6314227;22;20442;-95
2023/02/08 02:49:11;;;;;;;47.13;19.25;;;;;;;;;;6288423;22;20011;-92
2023/02/08 02:51:47;;;;;;;54.63;21.90;;;;;;;;;;6314420;22;20620;-92
2023/02/08 02:54:51;;;;;;;53.58;22.27;;;;;;;;;;6316282;22;20011;-93
2023/02/08 02:57:19;;;;;;;73.10;30.60;;;;;;;;;;6292525;22;20063;-92
2023/02/08 02:59:50;;;;;;;66.28;29.05;;;;;;;;;;6310682;22;20466;-95
2023/02/08 03:02:16;;;;;;;70.88;29.45;;;;;;;;;;6313635;22;20007;-93
2023/02/08 03:04:42;;;;;;;73.70;29.88;;;;;;;;;;6287702;22;20611;-93
2023/02/08 03:07:21;;;;;;;52.00;21.45;;;;;;;;;;6316086;22;20078;-96
2023/02/08 03:10:04;;;;;;;57.60;23.55;;;;;;;;;;6314498;22;20007;-95
2023/02/08 03:12:30;;;;;;;48.28;19.98;;;;;;;;;;6311209;22;20207;-92
2023/02/08 03:15:16;;;;;;;55.28;21.10;;;;;;;;;;6316305;22;20063;-91
2023/02/08 03:18:02;;;;;;;50.58;21.45;;;;;;;;;;6329736;22;19998;-92
2023/02/08 03:20:39;;;;;;;53.97;21.83;;;;;;;;;;6332265;22;20023;-93
2023/02/08 03:23:33;;;;;;;53.53;21.63;;;;;;;;;;6318475;22;20003;-95
2023/02/08 03:26:08;;;;;;;50.97;20.48;;;;;;;;;;6302929;22;20003;-93
2023/02/08 03:29:02;;;;;;;55.40;22.33;;;;;;;;;;6345373;22;20010;-92
2023/02/08 03:31:36;;;;;;;48.63;20.00;;;;;;;;;;6296009;22;20018;-92
2023/02/08 03:34:08;;;;;;;52.10;21.23;;;;;;;;;;6318636;22;20002;-93
2023/02/08 03:36:45;;;;;;;53.65;21.25;;;;;;;;;;6318089;22;20006;-93
2023/02/08 03:39:13;;;;;;;56.78;21.55;;;;;;;;;;6292127;22;20003;-93
2023/02/08 03:41:41;;;;;;;55.40;22.20;;;;;;;;;;6318976;22;20037;-93
2023/02/08 03:44:17;;;;;;;56.78;21.50;;;;;;;;;;6318489;22;19999;-95
2023/02/08 03:46:50;;;;;;;53.38;21.88;;;;;;;;;;6317854;22;20010;-93
2023/02/08 03:49:35;;;;;;;55.58;21.02;;;;;;;;;;6342285;22;20062;-96
2023/02/08 03:52:13;;;;;;;58.10;21.67;;;;;;;;;;6313179;22;20026;-92
2023/02/08 03:54:46;;;;;;;67.53;22.73;;;;;;;;;;6339382;22;20007;-92
2023/02/08 03:57:15;;;;;;;44.28;18.23;;;;;;;;;;6315678;22;20004;-94
2023/02/08 03:59:50;;;;;;;49.88;19.13;;;;;;;;;;6342152;22;20007;-93
2023/02/08 04:02:22;;;;;;;51.85;19.63;;;;;;;;;;6343524;22;20014;-96
2023/02/08 04:04:59;;;;;;;45.50;17.98;;;;;;;;;;6362204;22;19995;-92
2023/02/08 04:07:26;;;;;;;51.08;17.52;;;;;;;;;;6365328;22;20037;-92
2023/02/08 04:09:56;;;;;;;46.83;18.08;;;;;;;;;;6332449;22;20014;-94
2023/02/08 04:12:23;;;;;;;47.30;18.67;;;;;;;;;;6317588;22;20007;-94
2023/02/08 04:14:50;;;;;;;47.47;18.23;;;;;;;;;;6291483;22;20028;-95
2023/02/08 04:17:24;;;;;;;48.22;18.33;;;;;;;;;;6322010;22;20011;-94
2023/02/08 04:20:02;;;;;;;50.63;19.58;;;;;;;;;;6292250;22;20019;-95
2023/02/08 04:22:30;;;;;;;50.15;18.48;;;;;;;;;;6346501;22;20477;-92
2023/02/08 04:25:01;;;;;;;52.40;19.67;;;;;;;;;;6318905;22;20050;-95
2023/02/08 04:27:33;;;;;;;49.45;19.40;;;;;;;;;;6319901;22;20097;-95
2023/02/08 04:30:02;;;;;;;47.25;18.60;;;;;;;;;;6347564;22;20003;-96
2023/02/08 04:32:32;;;;;;;49.55;18.88;;;;;;;;;;6319416;22;20048;-96
2023/02/08 04:35:00;;;;;;;49.13;19.45;;;;;;;;;;6316140;22;20014;-95
2023/02/08 04:37:30;;;;;;;54.03;20.67;;;;;;;;;;6295951;22;20018;-94
2023/02/08 04:40:01;;;;;;;49.47;19.38;;;;;;;;;;6323230;22;20018;-92
2023/02/08 04:42:29;;;;;;;47.67;19.23;;;;;;;;;;6296529;22;20007;-93
2023/02/08 04:45:05;;;;;;;44.90;18.52;;;;;;;;;;6321058;22;20024;-95
2023/02/08 04:47:41;;;;;;;49.47;19.58;;;;;;;;;;6293833;22;20022;-95
2023/02/08 04:50:15;;;;;;;49.40;18.67;;;;;;;;;;6341707;22;20018;-94
2023/02/08 04:53:03;;;;;;;58.13;20.27;;;;;;;;;;6322716;22;20002;-93
2023/02/08 04:55:32;;;;;;;49.75;19.98;;;;;;;;;;6320745;22;20072;-94
2023/02/08 04:58:03;;;;;;;51.70;20.00;;;;;;;;;;6305327;22;19987;-91
2023/02/08 05:00:35;;;;;;;41.15;17.33;;;;;;;;;;6351258;22;20007;-94
2023/02/08 05:03:02;;;;;;;50.90;19.42;;;;;;;;;;6320008;22;20006;-92
2023/02/08 05:05:34;;;;;;;55.20;19.33;;;;;;;;;;6348243;22;20003;-93
2023/02/08 05:08:04;;;;;;;45.60;18.73;;;;;;;;;;6293510;22;20007;-94
2023/02/08 05:10:36;;;;;;;46.55;18.98;;;;;;;;;;6296192;22;20013;-96
2023/02/08 05:13:05;;;;;;;45.13;17.40;;;;;;;;;;6315930;22;20080;-95
2023/02/08 05:15:47;;;;;;;;;;;;;;;;;;;;;
2023/02/08 05:18:21;;;;;;;47.20;18.63;;;;;;;;;;6345904;22;20007;-95
2023/02/08 05:20:54;;;;;;;41.58;18.40;;;;;;;;;;6317528;22;20049;-95
2023/02/08 05:23:23;;;;;;;49.63;19.60;;;;;;;;;;6317360;22;20009;-91
2023/02/08 05:25:49;;;;;;;48.38;19.90;;;;;;;;;;6318024;22;20003;-93
2023/02/08 05:28:16;;;;;;;46.47;18.92;;;;;;;;;;6317581;22;20003;-93
2023/02/08 05:30:47;;;;;;;40.03;18.15;;;;;;;;;;6294356;22;20033;-93
2023/02/08 05:33:16;;;;;;;43.00;18.30;;;;;;;;;;6313736;22;20007;-93
2023/02/08 05:35:43;;;;;;;47.10;18.40;;;;;;;;;;6323308;22;20007;-93
2023/02/08 05:38:15;;;;;;;42.88;17.73;;;;;;;;;;6325940;22;19999;-95
2023/02/08 05:40:52;;;;;;;44.25;17.73;;;;;;;;;;6322480;22;20011;-95
2023/02/08 05:43:28;;;;;;;45.00;18.45;;;;;;;;;;6324934;22;20003;-94
2023/02/08 05:46:23;;;;;;;43.55;17.50;;;;;;;;;;6322927;22;20070;-95
2023/02/08 05:48:52;;;;;;;42.47;17.85;;;;;;;;;;6300267;22;20010;-95
2023/02/08 05:51:21;;;;;;;48.00;18.35;;;;;;;;;;6321243;22;20541;-93
2023/02/08 05:53:50;;;;;;;43.90;17.13;;;;;;;;;;6320237;22;20006;-91
2023/02/08 05:56:21;;;;;;;40.95;17.63;;;;;;;;;;6317311;22;20425;-95
2023/02/08 05:58:52;;;;;;;42.55;17.95;;;;;;;;;;6289804;22;20013;-94
2023/02/08 06:01:18;;;;;;;39.33;17.67;;;;;;;;;;6343078;22;20011;-93
2023/02/08 06:04:16;;;;;;;43.63;18.10;;;;;;;;;;6343396;22;20009;-95
2023/02/08 06:06:57;;;;;;;;;;;;;;;;;;;;;
2023/02/08 06:09:39;;;;;;;43.42;16.42;;;;;;;;;;6348815;22;20002;-95
2023/02/08 06:12:14;;;;;;;44.72;18.77;;;;;;;;;;6318495;22;20071;-96
2023/02/08 06:14:49;;;;;;;52.72;22.02;;;;;;;;;;6350494;22;20018;-96
2023/02/08 06:17:21;;;;;;;43.67;18.25;;;;;;;;;;6316800;22;19999;-94
2023/02/08 06:20:01;;;;;;;48.08;17.80;;;;;;;;;;6347637;22;20009;-95
2023/02/08 06:22:27;;;;;;;40.97;17.45;;;;;;;;;;6321915;22;20122;-92
2023/02/08 06:25:01;;;;;;;52.83;19.92;;;;;;;;;;6323999;22;20009;-95
2023/02/08 06:27:51;;;;;;;41.08;17.42;;;;;;;;;;6322894;22;20007;-95
2023/02/08 06:30:21;;;;;;;40.03;16.98;;;;;;;;;;6352316;22;20052;-96
2023/02/08 06:33:00;;;;;;;40.58;16.75;;;;;;;;;;6326466;22;20010;-95
2023/02/08 06:35:26;;;;;;;43.92;18.02;;;;;;;;;;6325918;22;20007;-93
2023/02/08 06:38:17;;;;;;;50.50;20.55;;;;;;;;;;6357407;22;19987;-89
2023/02/08 06:40:53;;;;;;;43.38;18.30;;;;;;;;;;6334389;22;20021;-91
2023/02/08 06:43:38;;;;;;;;;;;;;;;;;;;;;
2023/02/08 06:46:18;;;;;;;56.03;21.80;;;;;;;;;;6364224;22;20003;-92
2023/02/08 06:49:02;;;;;;;54.67;22.13;;;;;;;;;;6358362;22;20006;-93
2023/02/08 06:51:51;;;;;;;54.42;21.15;;;;;;;;;;6322351;22;20002;-96
2023/02/08 06:54:22;;;;;;;50.60;21.10;;;;;;;;;;6320454;22;20033;-96
2023/02/08 06:57:11;;;;;;;50.58;21.38;;;;;;;;;;6319564;22;20003;-94
2023/02/08 06:59:45;;;;;;;51.28;19.42;;;;;;;;;;6321226;22;20018;-95
2023/02/08 07:02:16;;;;;;;42.13;18.05;;;;;;;;;;6331847;22;20003;-95
2023/02/08 07:05:16;;;;;;;46.17;18.73;;;;;;;;;;6327122;22;20003;-94
2023/02/08 07:10:43;;;;;;;33.75;15.75;;;;;;;;;;6345203;22;20040;-95
2023/02/08 07:13:13;;;;;;;33.80;15.40;;;;;;;;;;6326569;22;20017;-95
2023/02/08 07:16:02;;;;;;;33.88;16.00;;;;;;;;;;6325256;22;19993;-95
2023/02/08 07:18:31;;;;;;;36.15;16.02;;;;;;;;;;6324327;22;20003;-92
2023/02/08 07:24:02;;;;;;;38.50;14.98;;;;;;;;;;6343937;22;20007;-93
2023/02/08 07:26:31;;;;;;;36.58;15.57;;;;;;;;;;6328332;22;19999;-94
2023/02/08 07:29:01;;;;;;;35.97;14.63;;;;;;;;;;6326824;22;20003;-96
2023/02/08 07:31:28;;;;;;;30.85;14.85;;;;;;;;;;6319008;22;20483;-91
2023/02/08 07:34:36;;;;;;;;;;;;;;;;;;;;;
2023/02/08 07:37:14;;;;;;;33.60;14.90;;;;;;;;;;6327104;22;20026;-93
2023/02/08 07:39:55;;;;;;;35.40;14.30;;;;;;;;;;6343842;22;20086;-92
2023/02/08 07:42:40;;;;;;;32.72;14.10;;;;;;;;;;6321987;22;20006;-96
2023/02/08 07:45:07;;;;;;;31.33;14.88;;;;;;;;;;6341229;22;20014;-94
2023/02/08 07:47:56;;;;;;;32.45;15.30;;;;;;;;;;6319033;22;20002;-94
2023/02/08 07:50:29;;;;;;;32.47;15.05;;;;;;;;;;6342084;22;20026;-95
2023/02/08 07:53:03;;;;;;;32.92;14.90;;;;;;;;;;6318855;22;20062;-96
2023/02/08 07:55:29;;;;;;;34.53;15.48;;;;;;;;;;6316520;22;19999;-93
2023/02/08 07:58:09;;;;;;;30.55;14.23;;;;;;;;;;6318248;22;20007;-96
2023/02/08 08:00:37;;;;;;;25.67;13.63;;;;;;;;;;6343392;22;20011;-95
2023/02/08 08:03:07;;;;;;;31.15;13.88;;;;;;;;;;6354123;22;20033;-96
2023/02/08 08:05:44;;;;;;;36.78;14.73;;;;;;;;;;6347406;22;20003;-96
2023/02/08 08:08:15;;;;;;;27.40;13.32;;;;;;;;;;6350997;22;20032;-94
2023/02/08 08:10:49;;;;;;;28.60;13.40;;;;;;;;;;6298335;22;20003;-96
2023/02/08 08:13:16;;;;;;;32.65;13.73;;;;;;;;;;6296067;22;20030;-96
2023/02/08 08:15:50;;;;;;;35.88;17.83;;;;;;;;;;6322405;22;20003;-96
2023/02/08 08:18:42;;;;;;;30.10;15.02;;;;;;;;;;6352651;22;20006;-95
2023/02/08 08:21:07;;;;;;;30.85;14.07;;;;;;;;;;6347124;22;20035;-93
2023/02/08 08:23:36;;;;;;;28.17;13.80;;;;;;;;;;6324469;22;20007;-95
2023/02/08 08:26:12;;;;;;;29.15;13.88;;;;;;;;;;6350571;22;20007;-94
2023/02/08 08:28:39;;;;;;;30.02;14.48;;;;;;;;;;6327877;22;20062;-94
2023/02/08 08:31:12;;;;;;;30.65;13.15;;;;;;;;;;6322751;22;20358;-94
2023/02/08 08:33:50;;;;;;;;;;;;;;;;;;;;;
2023/02/08 08:36:18;;;;;;;30.52;16.42;;;;;;;;;;6323209;22;20030;-96
2023/02/08 08:38:45;;;;;;;38.67;19.98;;;;;;;;;;6348377;22;19999;-94
2023/02/08 08:41:19;;;;;;;30.67;15.07;;;;;;;;;;6320179;22;20097;-96
2023/02/08 08:43:46;;;;;;;24.50;12.52;;;;;;;;;;6343885;22;20132;-95
2023/02/08 08:46:12;;;;;;;27.17;13.30;;;;;;;;;;6319472;22;19999;-96
2023/02/08 08:48:38;;;;;;;27.67;13.68;;;;;;;;;;6318689;22;19995;-95
2023/02/08 08:51:05;;;;;;;33.80;15.10;;;;;;;;;;6321598;22;20332;-94
2023/02/08 08:53:31;;;;;;;31.38;14.18;;;;;;;;;;6321263;22;19978;-94
2023/02/08 08:55:58;;;;;;;35.05;16.33;;;;;;;;;;6322261;22;20007;-96
2023/02/08 08:58:28;;;;;;;32.53;14.82;;;;;;;;;;6348560;22;20048;-96
2023/02/08 09:00:58;;;;;;;33.42;15.25;;;;;;;;;;6320851;22;20098;-95
2023/02/08 09:03:30;;;;;;;29.45;14.93;;;;;;;;;;6319548;22;20009;-94
2023/02/08 09:05:57;;;;;;;31.70;14.60;;;;;;;;;;6316537;22;20349;-92
2023/02/08 09:08:24;;;;;;;29.35;12.93;;;;;;;;;;6346748;22;20501;-93
2023/02/08 09:10:50;;;;;;;28.42;13.70;;;;;;;;;;6315061;22;20018;-93
2023/02/08 09:13:20;;;;;;;29.42;14.43;;;;;;;;;;6320495;22;20483;-94
2023/02/08 09:15:48;;;;;;;31.90;14.35;;;;;;;;;;6341288;22;20018;-93
2023/02/08 09:18:16;;;;;;;30.70;14.55;;;;;;;;;;6339847;22;20018;-92
2023/02/08 09:20:42;;;;;;;33.80;15.15;;;;;;;;;;6312968;22;20010;-92
2023/02/08 09:23:14;;;;;;;35.20;16.85;;;;;;;;;;6318220;22;20005;-93
2023/02/08 09:25:40;;;;;;;35.58;16.13;;;;;;;;;;6313368;22;19987;-93
2023/02/08 09:28:06;;;;;;;31.58;15.63;;;;;;;;;;6333877;22;20028;-92
2023/02/08 09:30:32;;;;;;;29.73;14.80;;;;;;;;;;6328541;22;20006;-95
2023/02/08 09:33:09;;;;;;;30.42;14.90;;;;;;;;;;6319503;22;20003;-95
2023/02/08 09:35:41;;;;;;;37.85;16.90;;;;;;;;;;6320309;22;20007;-95
2023/02/08 09:38:07;;;;;;;30.50;14.57;;;;;;;;;;6322148;22;20107;-92
2023/02/08 09:40:46;;;;;;;28.45;15.60;;;;;;;;;;6318283;22;20353;-93
2023/02/08 09:43:22;;;;;;;32.15;15.70;;;;;;;;;;6320803;22;20447;-95
2023/02/08 09:45:57;;;;;;;29.80;14.93;;;;;;;;;;6318905;22;20439;-93
2023/02/08 09:48:33;;;;;;;27.45;14.43;;;;;;;;;;6295414;22;20065;-93
2023/02/08 09:51:14;;;;;;;26.63;13.65;;;;;;;;;;6321841;22;19991;-96
2023/02/08 09:53:46;;;;;;;29.25;14.57;;;;;;;;;;6320430;22;20023;-95
2023/02/08 09:56:18;;;;;;;28.08;14.85;;;;;;;;;;6324712;22;20002;-94
2023/02/08 09:58:52;;;;;;;29.83;13.73;;;;;;;;;;6327134;22;19995;-94
2023/02/08 10:01:37;;;;;;;27.85;13.88;;;;;;;;;;6334471;22;20010;-92
2023/02/08 10:04:35;;;;;;;28.40;13.68;;;;;;;;;;6355579;22;20007;-95
2023/02/08 10:07:01;;;;;;;31.45;14.73;;;;;;;;;;6276460;22;20003;-92
2023/02/08 10:09:34;;;;;;;29.85;13.68;;;;;;;;;;6326726;22;20010;-94
2023/02/08 10:12:17;;;;;;;29.65;14.27;;;;;;;;;;6319862;22;19987;-96
2023/02/08 10:15:02;;;;;;;28.90;14.35;;;;;;;;;;6322133;22;20435;-94
2023/02/08 10:18:03;;;;;;;;;;;;;;;;;;;;;
2023/02/08 10:20:32;;;;;;;27.17;15.38;;;;;;;;;;6354989;22;20022;-95
2023/02/08 10:23:10;;;;;;;27.23;15.45;;;;;;;;;;6325387;22;20049;-94
2023/02/08 10:25:45;;;;;;;29.30;15.50;;;;;;;;;;6328606;22;20007;-94
2023/02/08 10:28:48;;;;;;;28.55;15.02;;;;;;;;;;6359325;22;20050;-94
2023/02/08 10:31:36;;;;;;;25.50;14.27;;;;;;;;;;6327643;22;20026;-92
2023/02/08 10:34:45;;;;;;;27.45;14.77;;;;;;;;;;6322500;22;19997;-95
2023/02/08 10:36:55;;;;;;;27.58;14.23;;;;;;;;;;6340373;22;20007;-94
2023/02/08 10:39:44;;;;;;;25.45;13.45;;;;;;;;;;6325768;22;20014;-93
2023/02/08 10:42:32;;;;;;;26.35;13.38;;;;;;;;;;6321905;22;20015;-95
2023/02/08 10:45:10;;;;;;;29.33;14.55;;;;;;;;;;6330093;22;20007;-95
2023/02/08 10:48:12;;;;;;;26.88;14.13;;;;;;;;;;6318561;22;20003;-93
2023/02/08 10:50:49;;;;;;;30.77;15.55;;;;;;;;;;6197409;22;20003;-96
2023/02/08 10:53:15;;;;;;;27.95;15.10;;;;;;;;;;6326312;22;20025;-93
2023/02/08 10:55:43;;;;;;;26.10;13.88;;;;;;;;;;6322089;22;20010;-93
2023/02/08 10:58:38;;;;;;;25.70;14.18;;;;;;;;;;6329223;22;19998;-94
2023/02/08 11:04:19;;;;;;;25.27;13.68;;;;;;;;;;6330357;22;20009;-93
2023/02/08 11:06:46;;;;;;;27.60;14.98;;;;;;;;;;6329729;22;20015;-93
2023/02/08 11:12:20;;;;;;;30.80;17.05;;;;;;;;;;6341899;22;20010;-94
2023/02/08 11:15:15;;;;;;;27.52;14.95;;;;;;;;;;6354058;22;20055;-94
2023/02/08 11:17:41;;;;;;;25.85;14.43;;;;;;;;;;6296876;22;19987;-93
2023/02/08 11:23:22;;;;;;;22.92;13.55;;;;;;;;;;6358669;22;20026;-92
2023/02/08 11:25:48;;;;;;;25.67;14.30;;;;;;;;;;6322041;22;20012;-92
2023/02/08 11:31:06;;;;;;;23.65;13.30;;;;;;;;;;6318922;22;20115;-92
2023/02/08 11:33:34;;;;;;;23.80;14.07;;;;;;;;;;6294140;22;20098;-90
2023/02/08 11:36:13;;;;;;;22.30;13.45;;;;;;;;;;6302175;22;19998;-94
2023/02/08 11:41:53;;;;;;;21.38;11.02;;;;;;;;;;6359716;22;20056;-89
2023/02/08 11:44:41;;;;;;;22.50;12.23;;;;;;;;;;6299478;22;20023;-91
2023/02/08 11:47:29;;;;;;;22.25;12.82;;;;;;;;;;6331972;22;20003;-93
2023/02/08 11:50:03;;;;;;;22.27;12.20;;;;;;;;;;6328459;22;19993;-92
2023/02/08 11:52:38;;;;;;;21.58;11.80;;;;;;;;;;6325913;22;20006;-93
2023/02/08 11:58:29;;;;;;;23.13;11.48;;;;;;;;;;6349097;22;20033;-93
2023/02/08 12:01:21;;;;;;;23.00;12.00;;;;;;;;;;6333227;22;20010;-93
2023/02/08 12:03:52;;;;;;;19.35;11.70;;;;;;;;;;6287574;22;20019;-91
2023/02/08 12:06:24;;;;;;;20.75;12.80;;;;;;;;;;6288880;22;20022;-92
2023/02/08 12:09:00;;;;;;;19.95;11.65;;;;;;;;;;6329563;22;20024;-94
2023/02/08 12:11:43;;;;;;;25.05;13.70;;;;;;;;;;6324422;22;20011;-92
2023/02/08 12:14:28;;;;;;;21.83;10.52;;;;;;;;;;6321442;22;20078;-93
2023/02/08 12:17:03;;;;;;;22.13;13.25;;;;;;;;;;6325467;22;20002;-93
2023/02/08 12:19:51;;;;;;;22.38;12.32;;;;;;;;;;6327588;22;20064;-91
2023/02/08 12:22:50;;;;;;;20.95;12.35;;;;;;;;;;6329137;22;20037;-92
2023/02/08 12:25:16;;;;;;;20.45;11.02;;;;;;;;;;6248213;22;20011;-93
2023/02/08 12:27:45;;;;;;;21.63;11.52;;;;;;;;;;6328655;22;20459;-92
2023/02/08 12:34:01;;;;;;;;;;;;;;;;;;;;;
2023/02/08 12:42:41;;;;;;;19.45;11.00;;;;;;;;;;6287087;22;20010;-93
2023/02/08 12:45:29;;;;;;;18.50;9.15;;;;;;;;;;6261694;22;20010;-93
2023/02/08 12:48:15;;;;;;;17.55;9.60;;;;;;;;;;6262378;22;20003;-93
2023/02/08 12:51:14;;;;;;;15.57;8.95;;;;;;;;;;6260092;22;20000;-94
2023/02/08 12:53:50;;;;;;;17.10;8.23;;;;;;;;;;6265177;22;20059;-95
2023/02/08 12:56:31;;;;;;;15.60;8.30;;;;;;;;;;6295906;22;20003;-92
2023/02/08 12:59:10;;;;;;;14.05;7.90;;;;;;;;;;6326916;22;20002;-92
2023/02/08 13:01:58;;;;;;;14.98;9.48;;;;;;;;;;6322297;22;20019;-94
2023/02/08 13:04:40;;;;;;;13.73;8.30;;;;;;;;;;6321503;22;20003;-95
2023/02/08 13:07:11;;;;;;;13.38;8.38;;;;;;;;;;6322140;22;20007;-92
2023/02/08 13:09:50;;;;;;;14.13;8.43;;;;;;;;;;6317025;22;20023;-95
2023/02/08 13:18:25;;;;;;;17.13;8.88;;;;;;;;;;6325303;22;20031;-93
2023/02/08 13:21:12;;;;;;;16.52;8.70;;;;;;;;;;6172808;23;20024;-94
2023/02/08 13:23:50;;;;;;;;;;;;;;;;;;;;;
2023/02/08 13:26:26;;;;;;;13.00;8.20;;;;;;;;;;6340482;22;20011;-92
2023/02/08 13:29:22;;;;;;;15.93;8.00;;;;;;;;;;6348056;22;20022;-92
2023/02/08 13:31:57;;;;;;;16.88;8.60;;;;;;;;;;6318872;22;20006;-93
2023/02/08 13:34:40;;;;;;;14.98;8.27;;;;;;;;;;6318025;22;20007;-92
2023/02/08 13:37:20;;;;;;;15.27;9.38;;;;;;;;;;6320231;22;20017;-94
2023/02/08 13:39:56;;;;;;;15.40;8.85;;;;;;;;;;6324401;22;20003;-92
2023/02/08 13:42:52;;;;;;;14.98;8.35;;;;;;;;;;6325166;22;20007;-92
2023/02/08 13:45:27;;;;;;;15.00;8.95;;;;;;;;;;6274347;22;20003;-95
2023/02/08 13:48:07;;;;;;;15.57;9.02;;;;;;;;;;6327540;22;19986;-93
2023/02/08 13:50:33;;;;;;;14.45;9.32;;;;;;;;;;6324021;22;20382;-93
2023/02/08 13:56:33;;;;;;;15.48;8.25;;;;;;;;;;6349629;22;20224;-95
2023/02/08 13:59:23;;;;;;;14.65;8.77;;;;;;;;;;6335254;22;20022;-95
2023/02/08 14:02:33;;;;;;;15.65;8.95;;;;;;;;;;6353822;22;20075;-92
2023/02/08 14:08:28;;;;;;;17.17;9.80;;;;;;;;;;6182494;23;20016;-93
2023/02/08 14:11:18;;;;;;;17.30;9.07;;;;;;;;;;6239791;22;20019;-94
2023/02/08 14:13:50;;;;;;;17.25;10.50;;;;;;;;;;6327416;22;19990;-95
2023/02/08 14:16:38;;;;;;;20.13;10.68;;;;;;;;;;6327855;22;20002;-92
2023/02/08 14:20:00;;;;;;;;;;;;;;;;;;;;;
2023/02/08 14:23:00;;;;;;;33.20;17.00;;;;;;;;;;6171854;23;20041;-95
2023/02/08 14:25:32;;;;;;;23.83;12.55;;;;;;;;;;6142366;23;19997;-93
2023/02/08 14:28:13;;;;;;;30.98;15.43;;;;;;;;;;6179265;23;20020;-95
2023/02/08 14:30:51;;;;;;;18.67;10.32;;;;;;;;;;6186031;22;19995;-96
2023/02/08 14:33:32;;;;;;;17.08;9.38;;;;;;;;;;6335635;22;19995;-93
2023/02/08 14:36:00;;;;;;;16.20;8.98;;;;;;;;;;6309141;22;20336;-93
2023/02/08 14:38:45;;;;;;;17.58;9.77;;;;;;;;;;6321687;22;20005;-94
2023/02/08 14:41:34;;;;;;;17.20;9.40;;;;;;;;;;6326738;22;20010;-92
2023/02/08 14:44:20;;;;;;;16.55;9.05;;;;;;;;;;6325122;22;20007;-94
2023/02/08 14:46:46;;;;;;;17.60;9.35;;;;;;;;;;6327365;22;20011;-93
2023/02/08 14:49:16;;;;;;;20.42;10.35;;;;;;;;;;6336551;22;20042;-93
2023/02/08 14:51:57;;;;;;;18.60;10.25;;;;;;;;;;6335210;22;20015;-94
2023/02/08 14:54:36;;;;;;;17.33;9.32;;;;;;;;;;6328539;22;20007;-92
2023/02/08 14:57:24;;;;;;;17.63;9.65;;;;;;;;;;6332738;22;19999;-93
2023/02/08 15:00:06;;;;;;;16.90;9.43;;;;;;;;;;6323690;22;20038;-95
2023/02/08 15:02:33;;;;;;;17.10;9.32;;;;;;;;;;6355306;22;20007;-93
2023/02/08 15:05:19;;;;;;;17.55;9.45;;;;;;;;;;6325429;22;19987;-93
2023/02/08 15:08:04;;;;;;;17.63;9.13;;;;;;;;;;6332800;22;20010;-92
2023/02/08 15:16:38;;;;;;;18.75;9.80;;;;;;;;;;6340983;22;20042;-93
2023/02/08 15:19:04;;;;;;;;;;;;;;;;;;6327251;22;20010;-92
2023/02/08 15:21:36;;;;;;;20.60;10.13;;;;;;;;;;6329481;22;19903;-91
2023/02/08 15:24:49;;;;;;;;;;;;;;;;;;;;;
2023/02/08 15:53:25;;;;;;;25.20;13.52;;;;;;;;;;6356474;22;20120;-92
2023/02/08 16:27:29;;;;;;;45.15;19.48;;;;;;;;;;6346191;22;20030;-94
2023/02/08 16:29:59;;;;;;;39.33;16.98;;;;;;;;;;6325246;22;20010;-96
2023/02/08 16:32:38;;;;;;;41.15;18.50;;;;;;;;;;6325728;22;19999;-93
2023/02/08 16:35:44;;;;;;;36.70;16.50;;;;;;;;;;6282311;22;20002;-96
2023/02/08 16:38:41;;;;;;;32.30;15.73;;;;;;;;;;6204758;23;20069;-96
2023/02/08 16:41:43;;;;;;;29.25;13.48;;;;;;;;;;6196565;23;20044;-95
2023/02/08 16:44:50;;;;;;;27.13;13.27;;;;;;;;;;6191843;23;20020;-95
2023/02/08 16:47:52;;;;;;;27.45;13.10;;;;;;;;;;6118946;23;19995;-93
2023/02/08 16:50:29;;;;;;;31.42;14.05;;;;;;;;;;6122367;22;20366;-91
2023/02/08 16:53:16;;;;;;;31.27;15.60;;;;;;;;;;6326112;22;20003;-95
2023/02/08 16:55:52;;;;;;;116.03;43.28;;;;;;;;;;6205797;23;20004;-96
2023/02/08 16:58:34;;;;;;;54.30;23.95;;;;;;;;;;6203082;23;20009;-94
2023/02/08 17:01:14;;;;;;;45.25;20.92;;;;;;;;;;6201584;23;20077;-94
2023/02/08 17:03:56;;;;;;;39.20;18.55;;;;;;;;;;6177360;23;20020;-96
2023/02/08 17:06:54;;;;;;;34.85;17.77;;;;;;;;;;6178316;23;20020;-95
2023/02/08 17:09:41;;;;;;;36.35;16.98;;;;;;;;;;6114815;23;20011;-96
2023/02/08 17:12:32;;;;;;;36.58;18.35;;;;;;;;;;6123156;23;20006;-96